AYPY/POM METAR and TAF weather

Enter ICAO airport designator
Station Type Date Time Source
AYPY METAR 2020/01/18 04:00 UTC NOAA

AYPY 180400Z 30015KT 9999 SCT040 34/25 Q1005


Station Type Date Time Source
AYPY Decoded METAR 2020/01/18 04:00 UTC NOAA

Moresby, Papua New Guinea (AYPY) 09-26S 147-13E 49M
Jan 17, 2020 - 11:00 PM EST / 2020.01.18 0400 UTC
Wind: from the WNW (300 degrees) at 17 MPH (15 KT):0
Visibility: greater than 7 mile(s):0
Sky conditions: partly cloudy
Temperature: 93 F (34 C)
Heat index: 106.7 F (41.5 C):1
Dew Point: 77 F (25 C)
Relative Humidity: 59%
Pressure (altimeter): 29.68 in. Hg (1005 hPa)
ob: AYPY 180400Z 30015KT 9999 SCT040 34/25 Q1005
cycle: 4

Station Type Date Time Source
AYPY TAF 2020/01/17 18:27 UTC NOAA

TAF TAF AYPY 171544Z 1718/1818 34006KT 9999 -SHRA SCT018 BKN030
FM180200 34015G26KT 9999 SCT020 SCT040 T 23 24 28 31 Q 1005 1006 1008 1007 AREA QNH FOR AYPY FIR VALID 1718/1818 1008 HPA

Example: see airport list